createdAt,value
2022-07-25T00:01:04.217Z,88.20
2022-07-25T00:03:39.127Z,87.80
2022-07-25T00:06:13.565Z,88.00
2022-07-25T00:08:49.862Z,88.30
2022-07-25T00:11:22.145Z,90.60
2022-07-25T00:13:54.923Z,89.50
2022-07-25T00:16:26.902Z,89.30
2022-07-25T00:18:59.119Z,88.70
2022-07-25T00:21:31.293Z,90.20
2022-07-25T00:24:04.086Z,90.00
2022-07-25T00:26:40.247Z,90.10
2022-07-25T00:29:13.726Z,90.50
2022-07-25T00:31:45.730Z,90.40
2022-07-25T00:34:17.878Z,90.60
2022-07-25T00:36:49.962Z,90.50
2022-07-25T00:39:21.939Z,90.30
2022-07-25T00:41:53.946Z,90.70
2022-07-25T00:44:29.143Z,90.20
2022-07-25T00:47:02.785Z,90.60
2022-07-25T00:49:34.925Z,91.50
2022-07-25T00:52:07.158Z,92.00
2022-07-25T00:54:39.422Z,91.80
2022-07-25T00:57:11.789Z,91.40
2022-07-25T00:59:43.956Z,91.50
2022-07-25T01:02:16.197Z,91.10
2022-07-25T01:04:48.625Z,91.10
2022-07-25T01:07:21.449Z,91.80
2022-07-25T01:09:54.368Z,91.90
2022-07-25T01:12:26.565Z,91.90
2022-07-25T01:14:58.699Z,91.80
2022-07-25T01:17:30.703Z,91.70
2022-07-25T01:20:02.789Z,91.50
2022-07-25T01:22:35.337Z,91.80
2022-07-25T01:25:07.610Z,92.50
2022-07-25T01:27:41.500Z,92.10
2022-07-25T01:30:16.048Z,92.20
2022-07-25T01:32:48.605Z,92.10
2022-07-25T01:35:20.998Z,92.20
2022-07-25T01:37:53.224Z,92.60
2022-07-25T01:40:25.471Z,92.20
2022-07-25T01:42:57.813Z,92.90
2022-07-25T01:45:29.853Z,93.70
2022-07-25T01:48:01.918Z,93.40
2022-07-25T01:50:34.221Z,92.90
2022-07-25T01:53:06.794Z,93.10
2022-07-25T01:55:39.034Z,93.00
2022-07-25T01:58:12.065Z,93.30
2022-07-25T02:00:44.381Z,93.40
2022-07-25T02:03:31.578Z,93.70
2022-07-25T02:06:07.051Z,93.90
2022-07-25T02:08:39.213Z,94.30
2022-07-25T02:11:11.506Z,94.40
2022-07-25T02:13:43.551Z,95.00
2022-07-25T02:16:15.542Z,95.20
2022-07-25T02:18:47.635Z,94.70
2022-07-25T02:21:20.029Z,95.40
2022-07-25T02:23:52.226Z,95.30
2022-07-25T02:26:24.239Z,96.70
2022-07-25T02:28:56.170Z,97.30
2022-07-25T02:31:28.267Z,96.70
2022-07-25T02:34:00.422Z,96.70
2022-07-25T02:36:32.540Z,97.40
2022-07-25T02:39:04.680Z,97.10
2022-07-25T02:41:36.803Z,97.30
2022-07-25T02:44:12.398Z,99.10
2022-07-25T02:46:44.368Z,97.90
2022-07-25T02:49:17.322Z,98.00
2022-07-25T02:51:49.286Z,98.60
2022-07-25T02:54:21.469Z,99.30
2022-07-25T02:56:53.746Z,99.70
2022-07-25T02:59:25.701Z,99.70
2022-07-25T03:02:04.362Z,99.90
2022-07-25T03:04:36.360Z,99.90
2022-07-25T03:07:08.580Z,99.90
2022-07-25T03:09:40.700Z,99.90
2022-07-25T03:12:12.711Z,99.90
2022-07-25T03:14:44.688Z,99.90
2022-07-25T03:17:16.814Z,99.90
2022-07-25T03:19:48.938Z,99.90
2022-07-25T03:22:21.414Z,99.90
2022-07-25T03:24:54.071Z,99.90
2022-07-25T03:27:26.135Z,99.90
2022-07-25T03:29:58.408Z,99.90
2022-07-25T03:32:30.547Z,99.90
2022-07-25T03:35:02.705Z,99.90
2022-07-25T03:37:36.205Z,99.90
2022-07-25T03:40:09.186Z,99.90
2022-07-25T03:42:41.817Z,99.90
2022-07-25T03:45:14.076Z,99.90
2022-07-25T03:47:46.222Z,99.90
2022-07-25T03:50:18.336Z,99.90
2022-07-25T03:52:50.514Z,99.90
2022-07-25T03:55:22.508Z,99.90
2022-07-25T03:57:54.488Z,99.90
2022-07-25T04:00:26.487Z,99.90
2022-07-25T04:02:59.371Z,99.90
2022-07-25T04:05:31.305Z,99.90
2022-07-25T04:08:03.480Z,99.90
2022-07-25T04:10:37.618Z,99.90
2022-07-25T04:13:09.618Z,99.90
2022-07-25T04:15:41.673Z,99.90
2022-07-25T04:18:14.732Z,99.90
2022-07-25T04:20:50.529Z,99.90
2022-07-25T04:23:22.535Z,99.90
2022-07-25T04:25:55.727Z,99.90
2022-07-25T04:28:28.590Z,99.90
2022-07-25T04:31:01.098Z,99.90
2022-07-25T04:33:33.129Z,99.90
2022-07-25T04:36:09.953Z,99.90
2022-07-25T04:38:41.994Z,99.90
2022-07-25T04:41:14.042Z,99.90
2022-07-25T04:43:48.739Z,99.90
2022-07-25T04:46:22.254Z,99.90
2022-07-25T04:49:00.324Z,99.90
2022-07-25T04:51:32.476Z,99.90
2022-07-25T04:54:05.165Z,99.90
2022-07-25T04:56:37.512Z,99.90
2022-07-25T04:59:09.573Z,99.90
2022-07-25T05:01:41.535Z,99.90
2022-07-25T05:04:13.457Z,99.90
2022-07-25T05:06:45.391Z,99.90
2022-07-25T05:09:17.338Z,99.90
2022-07-25T05:11:54.163Z,99.90
2022-07-25T05:14:30.864Z,99.90
2022-07-25T05:17:05.644Z,99.90
2022-07-25T05:19:39.269Z,99.90
2022-07-25T05:22:14.719Z,99.90
2022-07-25T05:24:47.667Z,99.90
2022-07-25T05:27:29.919Z,99.90
2022-07-25T05:30:08.679Z,99.90
2022-07-25T05:32:45.065Z,99.90
2022-07-25T05:35:17.480Z,99.90
2022-07-25T05:37:49.536Z,99.90
2022-07-25T05:40:21.781Z,99.90
2022-07-25T05:42:55.445Z,99.90
2022-07-25T05:45:29.574Z,99.90
2022-07-25T05:48:02.006Z,99.90
2022-07-25T05:50:36.335Z,99.90
2022-07-25T05:53:08.484Z,99.90
2022-07-25T05:55:41.019Z,99.90
2022-07-25T05:58:13.489Z,99.90
2022-07-25T06:00:45.483Z,99.90
2022-07-25T06:03:18.846Z,99.90
2022-07-25T06:05:50.952Z,99.90
2022-07-25T06:08:23.046Z,99.90
2022-07-25T06:10:55.351Z,99.90
2022-07-25T06:13:29.038Z,99.90
2022-07-25T06:16:01.666Z,99.90
2022-07-25T06:18:34.419Z,99.90
2022-07-25T06:21:06.633Z,99.90
2022-07-25T06:23:38.691Z,99.90
2022-07-25T06:26:11.020Z,99.90
2022-07-25T06:28:43.099Z,98.60
2022-07-25T06:31:15.249Z,96.00
2022-07-25T06:33:47.498Z,95.20
2022-07-25T06:36:19.530Z,93.60
2022-07-25T06:38:51.632Z,91.80
2022-07-25T06:41:23.686Z,91.70
2022-07-25T06:43:55.639Z,90.20
2022-07-25T06:46:31.486Z,89.10
2022-07-25T06:49:03.838Z,83.30
2022-07-25T06:51:36.009Z,82.70
2022-07-25T06:54:08.732Z,81.30
2022-07-25T06:56:46.370Z,76.10
2022-07-25T06:59:18.342Z,76.00
2022-07-25T07:01:51.819Z,73.10
2022-07-25T07:04:24.074Z,71.90
2022-07-25T07:06:56.080Z,68.50
2022-07-25T07:09:28.140Z,68.30
2022-07-25T07:12:00.354Z,65.80
2022-07-25T07:14:32.549Z,62.10
2022-07-25T07:17:05.760Z,63.00
2022-07-25T07:19:43.972Z,58.80
2022-07-25T07:22:16.678Z,60.30
2022-07-25T07:24:48.754Z,57.80
2022-07-25T07:27:23.530Z,54.90
2022-07-25T07:29:55.567Z,56.90
2022-07-25T07:32:28.464Z,55.70
2022-07-25T07:35:00.614Z,55.00
2022-07-25T07:37:37.644Z,55.00
2022-07-25T07:40:16.891Z,55.00
2022-07-25T07:42:50.981Z,54.30
2022-07-25T07:45:25.696Z,54.20
2022-07-25T07:47:58.223Z,53.30
2022-07-25T07:50:30.373Z,53.60
2022-07-25T07:53:02.932Z,54.40
2022-07-25T07:56:10.857Z,52.20
2022-07-25T07:58:43.894Z,52.70
2022-07-25T08:01:16.297Z,53.20
2022-07-25T08:03:48.886Z,52.00
2022-07-25T08:06:21.135Z,51.10
2022-07-25T08:08:53.313Z,51.50
2022-07-25T08:11:26.610Z,51.40
2022-07-25T08:13:58.772Z,54.20
2022-07-25T08:16:31.217Z,53.30
2022-07-25T08:19:04.090Z,53.50
2022-07-25T08:21:36.352Z,53.70
2022-07-25T08:24:08.889Z,52.90
2022-07-25T08:26:41.732Z,53.80
2022-07-25T08:29:25.012Z,52.50
2022-07-25T08:32:00.039Z,51.50
2022-07-25T08:34:32.419Z,52.20
2022-07-25T08:37:05.280Z,52.00
2022-07-25T08:39:37.310Z,48.70
2022-07-25T08:42:11.218Z,49.00
2022-07-25T08:44:49.222Z,51.50
2022-07-25T08:47:30.339Z,51.30
2022-07-25T08:50:08.662Z,49.80
2022-07-25T08:52:45.499Z,51.30
2022-07-25T08:55:22.759Z,50.80
2022-07-25T08:57:55.286Z,50.70
2022-07-25T09:00:36.267Z,50.30
2022-07-25T09:03:09.259Z,51.50
2022-07-25T09:05:41.914Z,50.80
2022-07-25T09:08:20.432Z,51.60
2022-07-25T09:10:53.521Z,51.40
2022-07-25T09:13:26.432Z,52.00
2022-07-25T09:16:00.588Z,51.40
2022-07-25T09:18:36.625Z,51.80
2022-07-25T09:21:13.894Z,51.40
2022-07-25T09:23:47.807Z,52.70
2022-07-25T09:26:19.971Z,53.30
2022-07-25T09:28:53.642Z,53.00
2022-07-25T09:31:33.148Z,54.80
2022-07-25T09:34:08.712Z,55.00
2022-07-25T09:36:54.690Z,54.20
2022-07-25T09:39:45.416Z,54.70
2022-07-25T09:42:27.597Z,54.50
2022-07-25T09:45:06.716Z,54.80
2022-07-25T09:47:55.581Z,53.20
2022-07-25T09:50:42.035Z,53.60
2022-07-25T09:53:14.865Z,55.80
2022-07-25T09:55:47.145Z,56.40
2022-07-25T09:58:19.612Z,55.20
2022-07-25T10:00:55.934Z,54.80
2022-07-25T10:03:50.967Z,54.10
2022-07-25T10:06:50.030Z,53.70
2022-07-25T10:09:28.893Z,55.50
2022-07-25T10:12:09.436Z,54.00
2022-07-25T10:14:43.034Z,53.80
2022-07-25T10:17:36.650Z,54.00
2022-07-25T10:20:10.872Z,53.10
2022-07-25T10:22:56.140Z,54.80
2022-07-25T10:25:29.447Z,54.00
2022-07-25T10:28:11.694Z,53.50
2022-07-25T10:30:58.644Z,53.10
2022-07-25T10:33:41.636Z,53.60
2022-07-25T10:36:14.097Z,53.60
2022-07-25T10:38:46.955Z,52.90
2022-07-25T10:41:26.007Z,50.60
2022-07-25T10:44:01.919Z,52.40
2022-07-25T10:46:35.773Z,51.70
2022-07-25T10:49:08.908Z,52.70
2022-07-25T10:51:59.092Z,53.10
2022-07-25T10:54:38.010Z,52.20
2022-07-25T10:57:16.724Z,52.60
2022-07-25T10:59:49.057Z,53.40
2022-07-25T11:02:23.991Z,51.80
2022-07-25T11:05:02.957Z,49.80
2022-07-25T11:07:38.107Z,50.20
2022-07-25T11:10:28.204Z,51.50
2022-07-25T11:13:00.480Z,50.10
2022-07-25T11:15:32.628Z,49.90
2022-07-25T11:18:04.916Z,51.20
2022-07-25T11:20:37.343Z,49.50
2022-07-25T11:23:09.556Z,49.60
2022-07-25T11:25:43.484Z,49.50
2022-07-25T11:28:15.623Z,49.30
2022-07-25T11:30:48.026Z,49.80
2022-07-25T11:33:20.218Z,46.40
2022-07-25T11:35:52.502Z,47.40
2022-07-25T11:38:25.739Z,48.20
2022-07-25T11:41:01.962Z,46.90
2022-07-25T11:43:34.775Z,47.90
2022-07-25T11:46:07.935Z,47.40
2022-07-25T11:48:41.221Z,47.70
2022-07-25T11:51:18.901Z,47.50
2022-07-25T11:53:51.616Z,48.90
2022-07-25T11:59:18.004Z,46.40
2022-07-25T12:01:50.409Z,47.60
2022-07-25T12:04:23.937Z,44.70
2022-07-25T12:07:05.809Z,46.80
2022-07-25T12:09:38.157Z,47.50
2022-07-25T12:12:10.407Z,47.60
2022-07-25T12:14:43.896Z,47.40
2022-07-25T12:17:16.538Z,48.70
2022-07-25T12:19:55.099Z,49.30
2022-07-25T12:22:27.338Z,49.80
2022-07-25T12:24:59.564Z,47.50
2022-07-25T12:27:32.070Z,49.40
2022-07-25T12:30:05.355Z,49.60
2022-07-25T12:32:38.998Z,48.50
2022-07-25T12:35:13.693Z,48.30
2022-07-25T12:37:46.107Z,51.00
2022-07-25T12:40:18.449Z,48.50
2022-07-25T12:42:51.699Z,49.10
2022-07-25T12:45:25.840Z,48.70
2022-07-25T12:47:58.828Z,49.40
2022-07-25T12:50:31.243Z,49.20
2022-07-25T12:53:04.927Z,48.90
2022-07-25T12:55:40.962Z,50.20
2022-07-25T12:58:15.154Z,50.00
2022-07-25T13:00:49.339Z,50.20
2022-07-25T13:03:21.871Z,51.00
2022-07-25T13:05:54.373Z,50.70
2022-07-25T13:08:27.604Z,52.40
2022-07-25T13:10:59.690Z,49.30
2022-07-25T13:13:31.718Z,50.10
2022-07-25T13:16:04.171Z,51.00
2022-07-25T13:18:37.129Z,50.00
2022-07-25T13:21:09.600Z,50.80
2022-07-25T13:23:42.326Z,49.50
2022-07-25T13:26:14.976Z,48.70
2022-07-25T13:28:47.229Z,49.40
2022-07-25T13:31:22.720Z,49.80
2022-07-25T13:34:09.144Z,49.80
2022-07-25T13:36:41.804Z,48.70
2022-07-25T13:39:14.149Z,48.20
2022-07-25T13:41:47.218Z,48.20
2022-07-25T13:44:20.603Z,44.50
2022-07-25T13:46:53.870Z,45.70
2022-07-25T13:49:26.470Z,45.30
2022-07-25T13:51:58.750Z,45.40
2022-07-25T13:54:31.262Z,45.40
2022-07-25T13:57:04.081Z,46.30
2022-07-25T13:59:36.642Z,46.80
2022-07-25T14:02:09.489Z,47.70
2022-07-25T14:04:42.046Z,48.60
2022-07-25T14:07:14.313Z,49.80
2022-07-25T14:09:47.612Z,50.50
2022-07-25T14:12:19.670Z,50.90
2022-07-25T14:14:52.043Z,51.60
2022-07-25T14:17:29.744Z,52.90
2022-07-25T14:20:04.764Z,52.80
2022-07-25T14:22:39.564Z,52.80
2022-07-25T14:25:13.885Z,54.00
2022-07-25T14:27:46.180Z,54.00
2022-07-25T14:30:18.864Z,53.30
2022-07-25T14:32:51.118Z,54.00
2022-07-25T14:35:23.174Z,53.70
2022-07-25T14:37:55.391Z,54.60
2022-07-25T14:40:28.821Z,54.80
2022-07-25T14:43:01.129Z,55.30
2022-07-25T14:45:34.458Z,54.20
2022-07-25T14:48:08.042Z,55.50
2022-07-25T14:50:40.619Z,53.60
2022-07-25T14:53:13.531Z,54.30
2022-07-25T14:55:46.273Z,54.30
2022-07-25T14:58:18.485Z,54.80
2022-07-25T15:00:50.857Z,54.30
2022-07-25T15:03:23.320Z,53.90
2022-07-25T15:05:56.164Z,54.10
2022-07-25T15:08:29.522Z,53.90
2022-07-25T15:11:01.825Z,54.50
2022-07-25T15:13:34.296Z,54.10
2022-07-25T15:16:06.787Z,54.00
2022-07-25T15:19:05.510Z,55.30
2022-07-25T15:21:31.954Z,54.30
2022-07-25T15:24:05.638Z,55.30
2022-07-25T15:26:38.046Z,56.40
2022-07-25T15:29:12.273Z,57.20
2022-07-25T15:31:51.788Z,57.40
2022-07-25T15:34:25.167Z,57.50
2022-07-25T15:36:57.692Z,57.80
2022-07-25T15:39:30.185Z,58.30
2022-07-25T15:42:03.590Z,58.40
2022-07-25T15:44:36.513Z,58.70
2022-07-25T15:47:09.395Z,58.70
2022-07-25T15:49:42.472Z,59.20
2022-07-25T15:52:14.802Z,59.30
2022-07-25T15:54:47.292Z,60.00
2022-07-25T15:57:19.632Z,60.50
2022-07-25T15:59:52.425Z,61.00
2022-07-25T16:02:25.619Z,60.60
2022-07-25T16:04:57.997Z,62.30
2022-07-25T16:07:31.618Z,60.30
2022-07-25T16:10:05.871Z,60.00
2022-07-25T16:12:39.287Z,60.50
2022-07-25T16:15:12.742Z,59.80
2022-07-25T16:17:46.116Z,59.60
2022-07-25T16:20:20.741Z,58.50
2022-07-25T16:22:56.175Z,58.20
2022-07-25T16:25:31.289Z,58.40
2022-07-25T16:28:04.625Z,58.90
2022-07-25T16:30:37.841Z,58.10
2022-07-25T16:33:10.399Z,57.60
2022-07-25T16:35:43.324Z,57.50
2022-07-25T16:38:15.845Z,57.60
2022-07-25T16:40:51.282Z,57.90
2022-07-25T16:43:24.359Z,57.70
2022-07-25T16:45:56.613Z,57.80
2022-07-25T16:48:29.453Z,56.90
2022-07-25T16:51:02.548Z,57.40
2022-07-25T16:53:36.702Z,57.00
2022-07-25T16:56:09.465Z,56.20
2022-07-25T16:58:42.236Z,56.00
2022-07-25T17:01:15.507Z,56.30
2022-07-25T17:03:48.116Z,56.50
2022-07-25T17:06:20.787Z,56.40
2022-07-25T17:08:54.320Z,57.20
2022-07-25T17:11:27.575Z,56.60
2022-07-25T17:14:03.353Z,56.80
2022-07-25T17:16:36.471Z,56.90
2022-07-25T17:19:11.022Z,56.60
2022-07-25T17:21:43.613Z,57.70
2022-07-25T17:24:16.571Z,57.30
2022-07-25T17:26:49.597Z,58.20
2022-07-25T17:29:22.159Z,59.00
2022-07-25T17:31:57.637Z,58.90
2022-07-25T17:34:30.224Z,59.10
2022-07-25T17:37:03.113Z,59.20
2022-07-25T17:39:37.754Z,59.60
2022-07-25T17:42:10.341Z,59.80
2022-07-25T17:44:42.760Z,60.10
2022-07-25T17:47:15.162Z,59.20
2022-07-25T17:49:47.615Z,59.30
2022-07-25T17:52:20.615Z,59.70
2022-07-25T17:54:53.456Z,59.60
2022-07-25T17:57:27.148Z,59.80
2022-07-25T17:59:59.444Z,59.60
2022-07-25T18:02:31.821Z,59.80
2022-07-25T18:05:05.950Z,60.20
2022-07-25T18:07:45.769Z,60.30
2022-07-25T18:10:23.923Z,60.80
2022-07-25T18:12:56.352Z,61.20
2022-07-25T18:15:31.404Z,61.40
2022-07-25T18:18:03.817Z,61.70
2022-07-25T18:20:39.964Z,61.90
2022-07-25T18:23:12.514Z,62.20
2022-07-25T18:25:45.628Z,62.20
2022-07-25T18:28:18.041Z,62.70
2022-07-25T18:30:51.552Z,62.90
2022-07-25T18:33:23.907Z,63.60
2022-07-25T18:35:56.599Z,63.30
2022-07-25T18:38:28.717Z,63.20
2022-07-25T18:41:27.450Z,62.70
2022-07-25T18:43:54.423Z,62.90
2022-07-25T18:46:27.284Z,62.50
2022-07-25T18:49:01.770Z,62.20
2022-07-25T18:51:34.065Z,62.10
2022-07-25T18:54:06.539Z,62.60
2022-07-25T18:56:39.247Z,62.70
2022-07-25T18:59:11.513Z,62.10
2022-07-25T19:01:44.257Z,62.40
2022-07-25T19:04:17.524Z,62.50
2022-07-25T19:06:50.172Z,62.60
2022-07-25T19:09:22.634Z,62.70
2022-07-25T19:11:57.373Z,62.90
2022-07-25T19:14:30.917Z,62.90
2022-07-25T19:17:04.097Z,63.30
2022-07-25T19:19:37.296Z,63.30
2022-07-25T19:22:10.298Z,63.90
2022-07-25T19:24:43.543Z,63.20
2022-07-25T19:27:15.767Z,63.70
2022-07-25T19:29:49.300Z,63.70
2022-07-25T19:32:27.633Z,64.10
2022-07-25T19:34:59.965Z,64.10
2022-07-25T19:37:34.957Z,64.60
2022-07-25T19:40:07.855Z,64.80
2022-07-25T19:42:42.798Z,64.70
2022-07-25T19:45:14.978Z,64.80
2022-07-25T19:47:47.171Z,65.60
2022-07-25T19:50:19.965Z,65.60
2022-07-25T19:52:52.230Z,65.80
2022-07-25T19:55:24.342Z,65.40
2022-07-25T19:57:57.139Z,65.80
2022-07-25T20:00:30.243Z,66.00
2022-07-25T20:03:02.955Z,66.60
2022-07-25T20:05:36.713Z,66.70
2022-07-25T20:08:09.300Z,67.50
2022-07-25T20:10:42.195Z,67.20
2022-07-25T20:13:14.788Z,67.70
2022-07-25T20:15:47.321Z,67.00
2022-07-25T20:18:20.036Z,68.10
2022-07-25T20:20:52.323Z,67.00
2022-07-25T20:23:24.908Z,67.30
2022-07-25T20:25:57.585Z,67.30
2022-07-25T20:28:31.621Z,67.50
2022-07-25T20:31:05.241Z,68.10
2022-07-25T20:33:37.843Z,68.30
2022-07-25T20:36:10.455Z,68.90
2022-07-25T20:38:42.667Z,68.80
2022-07-25T20:41:16.409Z,69.40
2022-07-25T20:43:49.678Z,69.10
2022-07-25T20:46:22.354Z,69.10
2022-07-25T20:48:54.975Z,69.50
2022-07-25T20:51:27.543Z,69.10
2022-07-25T20:53:59.774Z,69.70
2022-07-25T20:56:34.309Z,70.40
2022-07-25T20:59:07.221Z,69.70
2022-07-25T21:01:40.708Z,69.70
2022-07-25T21:04:13.375Z,69.80
2022-07-25T21:06:47.845Z,70.00
2022-07-25T21:09:20.337Z,70.60
2022-07-25T21:11:52.537Z,70.40
2022-07-25T21:14:26.825Z,70.20
2022-07-25T21:16:59.296Z,70.40
2022-07-25T21:19:31.828Z,70.00
2022-07-25T21:22:04.568Z,70.50
2022-07-25T21:24:36.808Z,70.60
2022-07-25T21:27:09.897Z,71.20
2022-07-25T21:29:41.937Z,70.40
2022-07-25T21:32:14.341Z,70.70
2022-07-25T21:34:49.870Z,70.70
2022-07-25T21:37:22.717Z,71.10
2022-07-25T21:39:54.863Z,70.50
2022-07-25T21:42:28.028Z,70.90
2022-07-25T21:45:00.385Z,71.00
2022-07-25T21:47:32.684Z,70.80
2022-07-25T21:50:25.070Z,71.70
2022-07-25T21:53:14.757Z,71.20
2022-07-25T21:55:46.975Z,70.80
2022-07-25T21:58:21.538Z,71.10
2022-07-25T22:00:55.150Z,70.60
2022-07-25T22:03:27.248Z,71.10
2022-07-25T22:05:59.368Z,71.40
2022-07-25T22:08:31.594Z,71.90
2022-07-25T22:11:15.900Z,71.90
2022-07-25T22:13:54.134Z,71.30
2022-07-25T22:16:26.396Z,71.80
2022-07-25T22:18:59.727Z,72.00
2022-07-25T22:21:32.892Z,71.90
2022-07-25T22:24:05.153Z,72.40
2022-07-25T22:26:38.002Z,72.30
2022-07-25T22:29:10.708Z,72.00
2022-07-25T22:31:44.440Z,72.00
2022-07-25T22:34:16.836Z,72.50
2022-07-25T22:36:49.018Z,72.40
2022-07-25T22:39:21.581Z,72.30
2022-07-25T22:41:53.747Z,72.70
2022-07-25T22:44:25.794Z,72.80
2022-07-25T22:46:58.637Z,74.30
2022-07-25T22:49:30.635Z,74.20
2022-07-25T22:52:02.644Z,74.30
2022-07-25T22:54:35.767Z,73.90
2022-07-25T22:57:07.827Z,74.00
2022-07-25T22:59:39.990Z,74.10
2022-07-25T23:02:12.110Z,74.60
2022-07-25T23:04:44.170Z,75.80
2022-07-25T23:07:16.165Z,75.50
2022-07-25T23:09:48.202Z,75.00
2022-07-25T23:12:27.589Z,74.80
2022-07-25T23:14:59.646Z,75.40
2022-07-25T23:17:31.827Z,75.40
2022-07-25T23:20:04.450Z,75.80
2022-07-25T23:22:37.277Z,75.80
2022-07-25T23:25:10.661Z,76.30
2022-07-25T23:27:42.839Z,76.80
2022-07-25T23:30:16.462Z,75.90
2022-07-25T23:32:48.623Z,77.60
2022-07-25T23:35:20.633Z,75.80
2022-07-25T23:37:52.607Z,76.80
2022-07-25T23:40:24.723Z,78.40
2022-07-25T23:42:57.254Z,77.30
2022-07-25T23:45:29.282Z,78.10
2022-07-25T23:48:01.385Z,78.60
2022-07-25T23:50:34.954Z,78.10
2022-07-25T23:53:07.148Z,77.80
2022-07-25T23:55:40.384Z,79.20
2022-07-25T23:58:12.309Z,79.20
